Time;durP1;ratioP1;P1;durP2;ratioP2;P2;SDS_P1;SDS_P2;PMS_P1;PMS_P2;Temp;Humidity;BMP_temperature;BMP_pressure;BME280_temperature;BME280_humidity;BME280_pressure;Samples;Min_cycle;Max_cycle;Signal;HPM_P1;HPM_P2
2022/07/21 00:01:23;;;;;;;7.10;3.92;;;11.60;99.90;;;;;;5094257;28;20372;-83
2022/07/21 00:03:51;;;;;;;7.33;5.27;;;11.70;99.90;;;;;;5094242;28;20392;-83
2022/07/21 00:06:18;;;;;;;7.53;4.40;;;12.10;99.90;;;;;;5093975;28;20368;-85
2022/07/21 00:08:45;;;;;;;6.75;3.90;;;12.50;99.90;;;;;;5094305;28;20379;-86
2022/07/21 00:11:13;;;;;;;6.40;3.22;;;12.50;99.90;;;;;;5093977;28;20853;-87
2022/07/21 00:13:40;;;;;;;6.73;3.37;;;12.50;99.90;;;;;;5093882;28;20383;-88
2022/07/21 00:16:07;;;;;;;7.63;3.70;;;12.50;99.90;;;;;;5093807;28;20728;-87
2022/07/21 00:18:35;;;;;;;5.32;3.20;;;12.50;99.90;;;;;;5094136;28;20394;-87
2022/07/21 00:21:02;;;;;;;5.20;3.58;;;12.50;99.90;;;;;;5093743;28;20724;-87
2022/07/21 00:23:30;;;;;;;5.15;3.20;;;12.60;99.90;;;;;;5092469;28;20410;-87
2022/07/21 00:25:57;;;;;;;4.63;3.30;;;12.60;99.90;;;;;;5092419;28;20406;-86
2022/07/21 00:28:24;;;;;;;3.85;2.53;;;12.50;99.90;;;;;;5093629;28;20369;-87
2022/07/21 00:30:51;;;;;;;5.05;2.50;;;12.60;99.90;;;;;;5093472;28;20387;-86
2022/07/21 00:33:18;;;;;;;3.78;2.30;;;12.60;99.90;;;;;;5093547;28;20405;-87
2022/07/21 00:35:45;;;;;;;4.55;2.30;;;12.70;99.90;;;;;;5093507;28;20425;-86
2022/07/21 00:38:13;;;;;;;3.88;2.03;;;12.70;99.90;;;;;;5093543;28;20393;-86
2022/07/21 00:40:40;;;;;;;5.05;2.10;;;12.70;99.90;;;;;;5093359;28;20376;-86
2022/07/21 00:43:07;;;;;;;5.70;2.17;;;12.70;99.90;;;;;;5093344;28;20822;-87
2022/07/21 00:45:34;;;;;;;4.67;2.13;;;12.80;99.90;;;;;;5092538;28;20385;-86
2022/07/21 00:48:01;;;;;;;3.63;2.05;;;12.90;99.90;;;;;;5093049;28;20373;-87
2022/07/21 00:50:30;;;;;;;4.03;1.90;;;12.90;99.90;;;;;;5091942;28;20467;-86
2022/07/21 00:52:57;;;;;;;4.05;1.88;;;13.00;99.90;;;;;;5091923;28;20868;-87
2022/07/21 00:55:24;;;;;;;3.70;2.00;;;12.90;99.90;;;;;;5093162;28;20392;-87
2022/07/21 00:57:53;;;;;;;4.35;1.60;;;13.00;99.90;;;;;;5093194;28;20364;-86
2022/07/21 01:00:27;;;;;;;2.83;1.40;;;13.00;99.90;;;;;;5093167;28;20471;-88
2022/07/21 01:02:55;;;;;;;5.78;1.70;;;13.20;99.90;;;;;;5093959;28;20447;-88
2022/07/21 01:05:23;;;;;;;4.13;1.48;;;13.20;99.90;;;;;;5093049;28;20881;-88
2022/07/21 01:07:53;;;;;;;3.55;1.70;;;13.10;99.90;;;;;;5097675;28;20372;-88
2022/07/21 01:10:22;;;;;;;4.13;1.73;;;13.10;99.90;;;;;;5098390;28;20380;-88
2022/07/21 01:12:50;;;;;;;4.10;1.50;;;13.20;99.90;;;;;;5095410;28;20369;-89
2022/07/21 01:15:18;;;;;;;5.95;1.77;;;13.20;99.90;;;;;;5092814;28;20373;-87
2022/07/21 01:17:46;;;;;;;4.18;1.67;;;13.30;99.90;;;;;;5093064;28;20373;-87
2022/07/21 01:20:16;;;;;;;4.75;1.70;;;13.10;99.90;;;;;;5093382;28;20459;-88
2022/07/21 01:22:45;;;;;;;5.15;2.00;;;13.10;99.90;;;;;;5093217;28;20380;-87
2022/07/21 01:25:13;;;;;;;4.10;2.00;;;12.90;99.90;;;;;;5092905;28;20401;-87
2022/07/21 01:27:40;;;;;;;4.38;2.10;;;12.80;99.90;;;;;;5092779;28;20423;-87
2022/07/21 01:30:09;;;;;;;7.00;2.47;;;12.70;99.90;;;;;;5092865;28;20388;-87
2022/07/21 01:32:38;;;;;;;11.83;3.50;;;12.70;99.90;;;;;;5092591;28;20740;-87
2022/07/21 01:35:08;;;;;;;9.65;3.25;;;12.70;99.90;;;;;;5091239;28;20368;-87
2022/07/21 01:37:39;;;;;;;10.55;2.97;;;12.80;99.90;;;;;;5092446;28;20395;-87
2022/07/21 01:42:53;;;;;;;3.72;1.80;;;12.90;99.90;;;;;;5092263;28;20410;-87
2022/07/21 01:45:22;;;;;;;5.85;2.10;;;12.90;99.90;;;;;;5092383;28;20487;-86
2022/07/21 01:47:50;;;;;;;5.68;2.20;;;12.80;99.90;;;;;;5091016;28;20368;-87
2022/07/21 01:50:18;;;;;;;6.78;2.58;;;12.80;99.90;;;;;;5093014;28;20372;-87
2022/07/21 01:52:46;;;;;;;6.95;2.80;;;12.80;99.90;;;;;;5091099;28;20376;-86
2022/07/21 01:55:13;;;;;;;6.75;2.70;;;12.80;99.90;;;;;;5092375;28;20387;-86
2022/07/21 01:57:40;;;;;;;6.20;2.70;;;13.00;99.90;;;;;;5092033;28;20377;-87
2022/07/21 02:00:08;;;;;;;8.13;2.67;;;13.00;99.90;;;;;;5092400;28;20398;-87
2022/07/21 02:02:35;;;;;;;7.75;3.25;;;13.20;99.90;;;;;;5092282;28;20447;-86
2022/07/21 02:05:03;;;;;;;6.20;2.83;;;13.30;99.90;;;;;;5092217;28;20488;-86
2022/07/21 02:07:30;;;;;;;9.48;3.75;;;13.30;99.90;;;;;;5092469;28;20400;-87
2022/07/21 02:09:57;;;;;;;4.10;2.00;;;13.30;99.90;;;;;;5092080;28;20463;-87
2022/07/21 02:12:24;;;;;;;6.95;2.45;;;13.40;99.90;;;;;;5092185;28;20396;-86
2022/07/21 02:14:51;;;;;;;5.07;2.13;;;13.70;99.90;;;;;;5092217;28;20789;-86
2022/07/21 02:17:19;;;;;;;6.90;2.40;;;13.50;99.90;;;;;;5092336;28;20408;-86
2022/07/21 02:19:46;;;;;;;7.50;2.50;;;13.50;99.90;;;;;;5092180;28;20378;-86
2022/07/21 02:22:13;;;;;;;7.78;3.10;;;13.40;99.90;;;;;;5091821;28;20415;-86
2022/07/21 02:24:40;;;;;;;7.57;2.80;;;13.30;99.90;;;;;;5092103;28;20963;-86
2022/07/21 02:27:08;;;;;;;12.93;2.90;;;13.30;99.90;;;;;;5091809;28;20365;-85
2022/07/21 02:29:35;;;;;;;7.68;3.10;;;13.20;99.90;;;;;;5092218;28;20383;-87
2022/07/21 02:32:02;;;;;;;5.23;2.80;;;13.20;99.90;;;;;;5091441;28;20376;-88
2022/07/21 02:34:29;;;;;;;5.80;2.72;;;13.20;99.90;;;;;;5092356;28;20408;-88
2022/07/21 02:36:56;;;;;;;5.20;2.80;;;13.20;99.90;;;;;;5091818;28;20463;-86
2022/07/21 02:39:23;;;;;;;5.80;3.00;;;13.30;99.90;;;;;;5092025;28;20365;-87
2022/07/21 02:41:50;;;;;;;6.88;3.00;;;13.30;99.90;;;;;;5090585;28;20368;-87
2022/07/21 02:44:17;;;;;;;8.30;3.90;;;13.30;99.90;;;;;;5090507;28;20537;-87
2022/07/21 02:46:44;;;;;;;8.80;4.20;;;13.50;99.90;;;;;;5091745;28;20373;-87
2022/07/21 02:49:11;;;;;;;6.97;2.90;;;13.70;99.90;;;;;;5092135;28;20856;-88
2022/07/21 02:51:38;;;;;;;6.97;2.53;;;13.80;99.90;;;;;;5092098;28;20380;-88
2022/07/21 02:54:06;;;;;;;4.40;2.20;;;13.90;99.90;;;;;;5091905;28;20434;-88
2022/07/21 02:56:33;;;;;;;3.90;2.45;;;14.10;99.90;;;;;;5092068;28;20375;-88
2022/07/21 02:59:00;;;;;;;5.35;2.42;;;14.30;99.90;;;;;;5090607;28;20402;-88
2022/07/21 03:01:27;;;;;;;5.60;2.60;;;14.40;99.90;;;;;;5091867;28;20396;-88
2022/07/21 03:03:54;;;;;;;7.07;2.60;;;14.40;99.90;;;;;;5091940;28;20422;-88
2022/07/21 03:06:21;;;;;;;8.02;2.70;;;14.80;99.90;;;;;;5091841;28;20372;-90
2022/07/21 03:08:48;;;;;;;5.93;2.20;;;15.10;99.90;;;;;;5090846;28;20448;-89
2022/07/21 03:11:16;;;;;;;6.45;2.50;;;15.10;99.90;;;;;;5095707;28;20845;-89
2022/07/21 03:13:43;;;;;;;6.47;2.42;;;15.40;99.90;;;;;;5095498;28;20377;-88
2022/07/21 03:16:10;;;;;;;6.50;2.30;;;15.50;99.90;;;;;;5095589;28;20376;-88
2022/07/21 03:18:41;;;;;;;4.63;2.15;;;15.40;99.90;;;;;;5095370;28;20423;-89
2022/07/21 03:21:08;;;;;;;4.03;1.90;;;15.50;99.90;;;;;;5095213;28;20365;-90
2022/07/21 03:23:36;;;;;;;4.72;1.70;;;15.60;99.90;;;;;;5094988;28;20395;-90
2022/07/21 03:26:03;;;;;;;4.45;1.73;;;15.70;99.90;;;;;;5094031;28;20391;-90
2022/07/21 03:28:30;;;;;;;3.42;1.52;;;;;;;;;;5095519;28;20379;-89
2022/07/21 03:30:57;;;;;;;4.88;1.52;;;15.80;99.90;;;;;;5094953;28;20368;-89
2022/07/21 03:33:24;;;;;;;4.13;1.42;;;15.30;99.90;;;;;;5093432;28;20441;-90
2022/07/21 03:35:52;;;;;;;4.22;1.45;;;;;;;;;;5095503;28;20895;-89
2022/07/21 03:38:19;;;;;;;3.78;1.50;;;;;;;;;;5094794;28;20392;-89
2022/07/21 03:40:46;;;;;;;3.53;1.38;;;;;;;;;;5094771;28;20724;-88
2022/07/21 03:43:13;;;;;;;4.50;1.60;;;;;;;;;;5093355;28;20736;-89
2022/07/21 03:45:40;;;;;;;4.57;1.70;;;;;;;;;;5094545;28;20395;-89
2022/07/21 03:48:07;;;;;;;6.37;2.83;;;;;;;;;;5093327;28;20380;-92
2022/07/21 03:50:36;;;;;;;5.15;2.22;;;;;;;;;;5093608;28;20377;-90
2022/07/21 03:53:03;;;;;;;3.67;1.60;;;;;;;;;;5095255;28;20372;-91
2022/07/21 03:55:31;;;;;;;3.10;1.20;;;;;;;;;;5094787;28;20388;-89
2022/07/21 03:57:59;;;;;;;5.70;1.50;;;;;;;;;;5094447;28;20721;-89
2022/07/21 04:00:30;;;;;;;3.33;1.25;;;;;;;;;;5093145;28;20369;-89
2022/07/21 04:02:57;;;;;;;3.67;1.48;;;;;;;;;;5094764;28;20361;-89
2022/07/21 04:05:25;;;;;;;5.20;1.20;;;;;;;;;;5094362;28;20489;-90
2022/07/21 04:07:53;;;;;;;2.43;0.90;;;;;;;;;;5092996;28;20377;-89
2022/07/21 04:10:21;;;;;;;4.93;1.33;;;;;;;;;;5095597;28;20706;-89
2022/07/21 04:12:50;;;;;;;4.35;1.00;;;15.30;99.90;;;;;;5095838;28;20361;-89
2022/07/21 04:15:17;;;;;;;3.17;1.00;;;;;;;;;;5099744;28;20377;-88
2022/07/21 04:17:44;;;;;;;3.40;1.00;;;;;;;;;;5098862;28;20365;-89
2022/07/21 04:20:13;;;;;;;3.88;0.90;;;15.10;99.90;;;;;;5095511;28;20391;-87
2022/07/21 04:22:42;;;;;;;3.05;1.23;;;14.50;99.90;;;;;;5095365;28;20360;-87
2022/07/21 04:25:09;;;;;;;3.53;1.05;;;14.40;99.90;;;;;;5093026;28;20404;-89
2022/07/21 04:27:37;;;;;;;4.05;1.20;;;14.30;99.90;;;;;;5094352;28;20415;-88
2022/07/21 04:30:07;;;;;;;2.42;1.23;;;14.30;99.90;;;;;;5093025;28;20375;-88
2022/07/21 04:32:34;;;;;;;5.95;1.50;;;14.30;99.90;;;;;;5094425;28;20416;-89
2022/07/21 04:35:01;;;;;;;4.57;1.38;;;14.20;99.90;;;;;;5093866;28;20871;-88
2022/07/21 04:37:29;;;;;;;3.27;1.30;;;14.20;99.90;;;;;;5093537;28;20422;-86
2022/07/21 04:39:56;;;;;;;4.78;1.10;;;14.10;99.90;;;;;;5093683;28;20868;-87
2022/07/21 04:42:23;;;;;;;3.70;1.10;;;14.00;99.90;;;;;;5093658;28;20365;-87
2022/07/21 04:44:50;;;;;;;5.65;1.10;;;14.00;99.90;;;;;;5093542;28;20799;-88
2022/07/21 04:47:18;;;;;;;4.43;1.20;;;13.70;99.90;;;;;;5093482;28;20425;-88
2022/07/21 04:49:45;;;;;;;4.15;1.10;;;13.50;99.90;;;;;;5093409;28;20404;-89
2022/07/21 04:52:12;;;;;;;4.50;0.93;;;13.50;99.90;;;;;;5093391;28;20462;-88
2022/07/21 04:54:40;;;;;;;4.80;1.10;;;13.50;99.90;;;;;;5093291;28;20388;-88
2022/07/21 04:57:07;;;;;;;3.33;0.90;;;13.40;99.90;;;;;;5093015;28;20365;-88
2022/07/21 04:59:35;;;;;;;3.63;1.10;;;13.30;99.90;;;;;;5091971;28;20373;-88
2022/07/21 05:02:03;;;;;;;3.78;0.90;;;13.30;99.90;;;;;;5093217;28;20372;-89
2022/07/21 05:04:31;;;;;;;3.83;1.00;;;13.40;99.90;;;;;;5093154;28;20443;-88
2022/07/21 05:06:58;;;;;;;4.00;1.10;;;13.50;99.90;;;;;;5093168;28;20408;-89
2022/07/21 05:09:25;;;;;;;5.00;1.23;;;13.50;99.90;;;;;;5093310;28;20372;-88
2022/07/21 05:11:52;;;;;;;4.22;1.20;;;13.50;99.90;;;;;;5093145;28;20367;-88
2022/07/21 05:14:19;;;;;;;5.57;1.23;;;13.60;99.90;;;;;;5091518;28;20439;-88
2022/07/21 05:16:46;;;;;;;4.70;1.27;;;13.60;99.90;;;;;;5092997;28;20866;-87
2022/07/21 05:19:13;;;;;;;4.57;1.20;;;13.60;99.90;;;;;;5092860;28;20392;-87
2022/07/21 05:21:41;;;;;;;6.00;1.50;;;13.50;99.90;;;;;;5091620;28;20372;-89
2022/07/21 05:24:09;;;;;;;6.00;1.40;;;13.50;99.90;;;;;;5093026;28;20571;-88
2022/07/21 05:26:36;;;;;;;3.87;1.20;;;13.40;99.90;;;;;;5091453;28;20793;-88
2022/07/21 05:29:03;;;;;;;4.32;1.80;;;13.50;99.90;;;;;;5091318;28;20377;-88
2022/07/21 05:31:30;;;;;;;4.50;1.60;;;13.40;99.90;;;;;;5092282;28;20453;-88
2022/07/21 05:33:57;;;;;;;5.20;1.80;;;13.40;99.90;;;;;;5092583;28;20526;-89
2022/07/21 05:36:25;;;;;;;5.82;1.80;;;13.30;99.90;;;;;;5093285;28;20364;-89
2022/07/21 05:38:52;;;;;;;4.25;1.55;;;13.30;99.90;;;;;;5092513;28;20392;-89
2022/07/21 05:41:19;;;;;;;5.57;1.83;;;13.30;99.90;;;;;;5092714;28;20736;-88
2022/07/21 05:43:46;;;;;;;6.00;2.80;;;13.40;99.90;;;;;;5091836;28;20391;-89
2022/07/21 05:46:13;;;;;;;7.10;2.22;;;13.50;99.90;;;;;;5093145;28;20434;-90
2022/07/21 05:48:40;;;;;;;3.75;1.20;;;13.60;99.90;;;;;;5093445;28;20368;-88
2022/07/21 05:51:08;;;;;;;4.57;1.35;;;13.60;99.90;;;;;;5093085;28;20376;-90
2022/07/21 05:53:35;;;;;;;3.10;1.50;;;13.60;99.90;;;;;;5091584;28;20381;-92
2022/07/21 05:56:02;;;;;;;5.05;1.65;;;13.60;99.90;;;;;;5092673;28;20443;-89
2022/07/21 05:58:29;;;;;;;4.95;1.90;;;13.70;99.90;;;;;;5091262;28;20436;-91
2022/07/21 06:01:09;;;;;;;6.17;1.83;;;13.70;99.90;;;;;;5092515;28;20418;-91
2022/07/21 06:03:44;;;;;;;5.25;1.63;;;13.60;99.90;;;;;;5092983;28;20721;-89
2022/07/21 06:06:13;;;;;;;4.63;1.40;;;13.60;99.90;;;;;;5093044;28;20401;-87
2022/07/21 06:08:42;;;;;;;4.45;1.40;;;13.70;99.90;;;;;;5093250;28;20375;-88
2022/07/21 06:11:12;;;;;;;6.43;1.57;;;13.70;99.90;;;;;;5091265;28;20373;-88
2022/07/21 06:13:40;;;;;;;5.65;2.05;;;13.70;99.90;;;;;;5093420;28;20399;-90
2022/07/21 06:16:08;;;;;;;6.72;2.20;;;13.70;99.90;;;;;;5093078;28;20384;-93
2022/07/21 06:18:35;;;;;;;7.32;2.10;;;13.70;99.90;;;;;;5092079;28;20408;-89
2022/07/21 06:21:05;;;;;;;7.88;1.75;;;13.70;99.90;;;;;;5092898;28;20376;-92
2022/07/21 06:23:32;;;;;;;9.10;2.20;;;13.70;99.90;;;;;;5092799;28;20388;-90
2022/07/21 06:25:59;;;;;;;9.02;2.08;;;13.70;99.90;;;;;;5092387;28;20443;-88
2022/07/21 06:28:26;;;;;;;9.60;3.70;;;13.60;99.90;;;;;;5092194;28;20438;-89
2022/07/21 06:30:54;;;;;;;13.40;6.05;;;13.60;99.90;;;;;;5091146;28;20408;-91
2022/07/21 06:33:22;;;;;;;15.52;6.78;;;13.50;99.90;;;;;;5091317;28;20392;-89
2022/07/21 06:35:49;;;;;;;17.25;7.28;;;13.40;99.90;;;;;;5090938;28;20387;-89
2022/07/21 06:38:16;;;;;;;17.20;5.70;;;13.20;99.90;;;;;;5090728;28;20465;-88
2022/07/21 06:40:43;;;;;;;14.75;4.80;;;13.20;99.90;;;;;;5092313;28;20758;-88
2022/07/21 06:43:11;;;;;;;12.63;4.38;;;13.10;99.90;;;;;;5092868;28;20372;-88
2022/07/21 06:45:39;;;;;;;9.55;3.20;;;13.20;99.90;;;;;;5096165;28;20414;-88
2022/07/21 06:48:08;;;;;;;10.93;3.10;;;13.10;99.90;;;;;;5095202;28;20452;-89
2022/07/21 06:50:36;;;;;;;9.45;2.90;;;13.10;99.90;;;;;;5094917;28;20432;-88
2022/07/21 06:53:04;;;;;;;9.88;2.55;;;13.10;99.90;;;;;;5094457;28;20451;-89
2022/07/21 06:55:32;;;;;;;10.13;2.45;;;13.10;99.90;;;;;;5095812;28;20375;-90
2022/07/21 06:58:08;;;;;;;7.90;2.80;;;13.10;99.90;;;;;;5095814;28;20369;-87
2022/07/21 07:00:35;;;;;;;12.30;3.25;;;13.10;99.90;;;;;;5096000;28;20731;-90
2022/07/21 07:03:03;;;;;;;8.65;3.13;;;13.00;99.90;;;;;;5095684;28;20400;-90
2022/07/21 07:05:30;;;;;;;11.85;4.75;;;12.90;99.90;;;;;;5094717;28;20752;-84
2022/07/21 07:07:58;;;;;;;10.70;4.88;;;12.80;99.90;;;;;;5095489;28;20451;-86
2022/07/21 07:10:26;;;;;;;9.15;3.83;;;12.70;99.90;;;;;;5095526;28;20406;-89
2022/07/21 07:12:54;;;;;;;11.43;5.18;;;12.70;99.90;;;;;;5095164;28;20373;-92
2022/07/21 07:15:22;;;;;;;11.85;6.18;;;12.60;99.90;;;;;;5095610;28;20373;-91
2022/07/21 07:17:51;;;;;;;14.75;6.93;;;12.60;99.90;;;;;;5095633;28;20856;-91
2022/07/21 07:20:18;;;;;;;13.82;7.25;;;12.50;99.90;;;;;;5095837;28;20404;-84
2022/07/21 07:22:46;;;;;;;15.07;7.18;;;12.50;99.90;;;;;;5096325;28;20376;-86
2022/07/21 07:25:16;;;;;;;13.95;7.45;;;12.40;99.90;;;;;;5099426;28;20460;-86
2022/07/21 07:27:45;;;;;;;15.52;8.38;;;12.50;99.90;;;;;;5098063;28;20353;-87
2022/07/21 07:30:13;;;;;;;16.00;8.68;;;12.50;99.90;;;;;;5094386;28;20767;-88
2022/07/21 07:32:40;;;;;;;13.52;7.82;;;12.50;99.90;;;;;;5095276;28;20445;-86
2022/07/21 07:35:09;;;;;;;15.48;7.78;;;12.40;99.90;;;;;;5095161;28;20377;-86
2022/07/21 07:37:38;;;;;;;12.93;6.90;;;12.50;99.90;;;;;;5094364;28;20806;-89
2022/07/21 07:40:07;;;;;;;11.43;4.70;;;12.40;99.90;;;;;;5094393;28;20384;-87
2022/07/21 07:42:41;;;;;;;12.68;5.05;;;12.50;99.90;;;;;;5095596;28;20368;-88
2022/07/21 07:45:11;;;;;;;10.63;3.70;;;12.50;99.90;;;;;;5099489;28;20396;-93
2022/07/21 07:47:38;;;;;;;13.63;3.60;;;12.40;99.90;;;;;;5095588;28;20372;-91
2022/07/21 07:50:12;;;;;;;13.10;3.40;;;12.30;99.90;;;;;;5095961;28;20385;-92
2022/07/21 07:52:43;;;;;;;11.80;3.38;;;10.60;99.90;;;;;;5095890;28;20456;-92
2022/07/21 07:55:12;;;;;;;11.07;2.75;;;12.40;99.90;;;;;;5093455;28;20384;-90
2022/07/21 07:57:40;;;;;;;10.57;2.92;;;12.40;99.90;;;;;;5096161;28;20453;-90
2022/07/21 08:00:14;;;;;;;13.23;4.53;;;12.50;99.90;;;;;;5094057;28;20372;-94
2022/07/21 08:02:42;;;;;;;11.00;3.27;;;12.50;99.90;;;;;;5095871;28;20426;-89
2022/07/21 08:05:10;;;;;;;15.25;4.00;;;12.40;99.90;;;;;;5094308;28;20403;-95
2022/07/21 08:07:38;;;;;;;20.70;8.00;;;12.40;99.90;;;;;;5096714;28;20375;-89
2022/07/21 08:10:10;;;;;;;16.80;6.70;;;12.40;99.90;;;;;;5098868;28;20430;-91
2022/07/21 08:12:37;;;;;;;20.10;6.87;;;12.30;99.90;;;;;;5097872;28;20367;-90
2022/07/21 08:15:05;;;;;;;18.63;7.15;;;12.30;99.90;;;;;;5099121;28;20781;-91
2022/07/21 08:17:32;;;;;;;15.85;6.32;;;12.30;99.90;;;;;;5098034;28;20721;-91
2022/07/21 08:19:59;;;;;;;12.70;4.30;;;12.30;99.90;;;;;;5095345;28;20384;-93
2022/07/21 08:22:26;;;;;;;16.67;4.80;;;12.30;99.90;;;;;;5098989;28;20414;-91
2022/07/21 08:24:55;;;;;;;11.65;3.90;;;12.20;99.90;;;;;;5098668;28;20404;-87
2022/07/21 08:27:22;;;;;;;14.50;4.25;;;12.30;99.90;;;;;;5097331;28;20415;-84
2022/07/21 08:29:50;;;;;;;14.38;5.35;;;12.30;99.90;;;;;;5094295;28;20404;-94
2022/07/21 08:32:18;;;;;;;16.67;6.75;;;12.30;99.90;;;;;;5095915;28;20763;-92
2022/07/21 08:34:49;;;;;;;13.35;6.95;;;12.30;99.90;;;;;;5099510;28;20404;-93
2022/07/21 08:37:20;;;;;;;14.18;5.70;;;12.20;99.90;;;;;;5098763;28;20377;-92
2022/07/21 08:39:48;;;;;;;14.00;5.30;;;12.20;99.90;;;;;;5097449;28;20717;-87
2022/07/21 08:42:16;;;;;;;16.10;6.45;;;12.30;99.90;;;;;;5101002;28;20461;-90
2022/07/21 08:44:44;;;;;;;16.00;6.97;;;12.20;99.90;;;;;;5096408;28;20417;-92
2022/07/21 08:47:11;;;;;;;12.17;5.20;;;12.20;99.90;;;;;;5095239;28;20395;-90
2022/07/21 08:49:39;;;;;;;18.40;6.63;;;12.30;99.90;;;;;;5095818;28;20844;-83
2022/07/21 08:52:07;;;;;;;17.25;5.63;;;12.20;99.90;;;;;;5093724;28;20434;-86
2022/07/21 08:54:34;;;;;;;14.10;4.70;;;12.20;99.90;;;;;;5095394;28;20368;-90
2022/07/21 08:57:02;;;;;;;17.17;5.40;;;12.20;99.90;;;;;;5094460;28;20451;-91
2022/07/21 08:59:29;;;;;;;14.50;5.65;;;12.20;99.90;;;;;;5095256;28;20387;-89
2022/07/21 09:01:56;;;;;;;18.25;6.03;;;12.10;99.90;;;;;;5095191;28;20372;-92
2022/07/21 09:04:33;;;;;;;15.65;6.10;;;12.10;99.90;;;;;;5096578;28;20903;-96
2022/07/21 09:07:06;;;;;;;18.20;6.57;;;12.10;99.90;;;;;;5093799;28;20890;-92
2022/07/21 09:09:35;;;;;;;20.77;6.70;;;12.10;99.90;;;;;;5097244;28;20925;-92
2022/07/21 09:12:03;;;;;;;19.40;6.82;;;12.00;99.90;;;;;;5098527;28;20380;-89
2022/07/21 09:14:34;;;;;;;17.25;7.78;;;12.00;99.90;;;;;;5096158;28;20399;-94
2022/07/21 09:17:06;;;;;;;19.23;8.48;;;12.00;99.90;;;;;;5093914;28;20384;-91
2022/07/21 09:19:37;;;;;;;21.02;8.40;;;11.80;99.90;;;;;;5096145;28;20501;-91
2022/07/21 09:22:07;;;;;;;17.03;8.77;;;11.90;99.90;;;;;;5093543;28;20388;-87
2022/07/21 09:24:40;;;;;;;18.63;8.73;;;11.80;99.90;;;;;;5093806;28;20407;-90
2022/07/21 09:27:09;;;;;;;20.05;8.20;;;11.80;99.90;;;;;;5092805;28;20385;-91
2022/07/21 09:29:49;;;;;;;22.60;7.65;;;11.80;99.90;;;;;;5092677;28;20883;-91
2022/07/21 09:32:21;;;;;;;24.58;8.07;;;11.80;99.90;;;;;;5092078;28;20372;-91
2022/07/21 09:34:53;;;;;;;19.40;8.00;;;11.80;99.90;;;;;;5091956;28;20496;-91
2022/07/21 09:37:22;;;;;;;23.30;8.13;;;11.80;99.90;;;;;;5092476;28;20463;-90
2022/07/21 09:39:56;;;;;;;22.45;9.50;;;11.80;99.90;;;;;;5092383;28;20388;-91
2022/07/21 09:42:23;;;;;;;20.67;8.52;;;11.80;99.90;;;;;;5091813;28;20384;-90
2022/07/21 09:44:53;;;;;;;23.80;13.18;;;11.80;99.90;;;;;;5092418;28;20872;-90
2022/07/21 09:47:27;;;;;;;25.30;9.70;;;11.60;99.90;;;;;;5095122;28;20376;-91
2022/07/21 09:49:55;;;;;;;24.20;10.57;;;11.80;99.90;;;;;;5104277;28;20372;-89
2022/07/21 09:52:31;;;;;;;28.63;11.48;;;11.80;99.90;;;;;;5101088;28;20777;-92
2022/07/21 09:55:01;;;;;;;23.35;12.68;;;11.70;99.90;;;;;;5095669;28;20440;-93
2022/07/21 09:57:29;;;;;;;25.38;13.25;;;11.70;99.90;;;;;;5095163;28;20473;-92
2022/07/21 09:59:57;;;;;;;32.60;20.20;;;10.90;99.90;;;;;;5093340;28;20494;-91
2022/07/21 10:02:32;;;;;;;30.63;16.92;;;11.70;99.90;;;;;;5091995;28;20411;-91
2022/07/21 10:05:05;;;;;;;19.92;11.65;;;11.60;99.90;;;;;;5092277;28;20407;-90
2022/07/21 10:07:35;;;;;;;22.92;12.57;;;11.70;99.90;;;;;;5092135;28;20369;-91
2022/07/21 10:10:03;;;;;;;22.23;12.75;;;11.70;99.90;;;;;;5091810;28;20384;-91
2022/07/21 10:12:30;;;;;;;25.17;12.73;;;11.80;99.90;;;;;;5093295;28;20409;-90
2022/07/21 10:14:57;;;;;;;29.92;13.85;;;11.90;99.90;;;;;;5092852;28;20766;-90
2022/07/21 10:17:25;;;;;;;26.77;13.85;;;11.90;99.90;;;;;;5092514;28;20372;-90
2022/07/21 10:20:26;;;;;;;22.05;13.13;;;11.90;99.90;;;;;;5096855;28;20879;-91
2022/07/21 10:23:09;;;;;;;20.50;12.20;;;12.00;99.90;;;;;;5096386;28;20435;-88
2022/07/21 10:25:37;;;;;;;24.67;12.75;;;12.00;99.90;;;;;;5098080;28;20403;-89
2022/07/21 10:28:24;;;;;;;26.90;13.68;;;11.80;99.90;;;;;;5099170;28;20360;-91
2022/07/21 10:30:54;;;;;;;19.15;8.70;;;12.10;99.90;;;;;;5101132;28;20380;-92
2022/07/21 10:33:43;;;;;;;16.38;7.47;;;11.90;99.90;;;;;;5100914;28;20462;-92
2022/07/21 10:36:33;;;;;;;14.88;4.80;;;11.90;99.90;;;;;;5016175;28;20375;-91
2022/07/21 10:39:09;;;;;;;12.88;4.47;;;11.80;99.90;;;;;;5016221;28;20407;-89
2022/07/21 10:41:54;;;;;;;15.13;6.32;;;11.70;99.90;;;;;;4999652;28;20383;-89
2022/07/21 10:44:30;;;;;;;13.18;4.55;;;11.60;99.90;;;;;;5016192;28;20433;-90
2022/07/21 10:47:08;;;;;;;16.38;4.65;;;11.60;99.90;;;;;;4998964;28;20386;-90
2022/07/21 10:49:46;;;;;;;12.13;5.00;;;11.60;99.90;;;;;;4998821;28;20375;-91
2022/07/21 10:52:41;;;;;;;17.25;5.80;;;11.50;99.90;;;;;;4998370;28;20433;-91
2022/07/21 10:55:11;;;;;;;16.65;7.95;;;11.40;99.90;;;;;;5015648;28;20395;-91
2022/07/21 10:57:46;;;;;;;21.63;9.75;;;11.20;99.90;;;;;;5015684;28;20383;-91
2022/07/21 11:00:20;;;;;;;23.40;11.00;;;11.20;99.90;;;;;;5016206;28;20486;-90
2022/07/21 11:02:50;;;;;;;22.88;12.18;;;11.10;99.90;;;;;;5001612;28;20414;-89
2022/07/21 11:05:17;;;;;;;25.58;13.60;;;11.10;99.90;;;;;;5017441;28;20486;-89
2022/07/21 11:08:08;;;;;;;23.13;12.63;;;11.10;99.90;;;;;;5017344;28;20383;-90
2022/07/21 11:10:38;;;;;;;23.65;13.57;;;11.10;99.90;;;;;;5000182;28;20385;-90
2022/07/21 11:13:05;;;;;;;24.10;13.50;;;11.10;99.90;;;;;;5040313;28;20400;-89
2022/07/21 11:15:55;;;;;;;24.77;14.43;;;11.10;99.90;;;;;;5096926;28;20369;-90
2022/07/21 11:18:26;;;;;;;25.07;15.87;;;11.10;99.90;;;;;;5098038;28;20373;-90
2022/07/21 11:21:08;;;;;;;29.15;15.85;;;11.20;99.90;;;;;;5097610;28;20372;-89
2022/07/21 11:23:37;;;;;;;23.60;13.82;;;11.30;99.90;;;;;;5097889;28;20373;-89
2022/07/21 11:26:05;;;;;;;22.83;13.77;;;11.40;99.90;;;;;;5099175;28;20376;-90
2022/07/21 11:28:32;;;;;;;23.25;13.15;;;11.40;99.90;;;;;;5099114;28;20387;-91
2022/07/21 11:31:13;;;;;;;21.10;12.40;;;11.30;99.90;;;;;;5090383;28;20427;-90
2022/07/21 11:33:43;;;;;;;20.42;12.68;;;11.20;99.90;;;;;;5097184;28;20373;-89
2022/07/21 11:36:10;;;;;;;20.25;11.90;;;11.20;99.90;;;;;;5097684;28;20402;-89
2022/07/21 11:38:37;;;;;;;22.38;13.13;;;11.10;99.90;;;;;;5096330;28;20388;-90
2022/07/21 11:41:20;;;;;;;24.60;12.50;;;11.00;99.90;;;;;;5097978;28;20375;-89
2022/07/21 11:43:48;;;;;;;25.98;14.88;;;10.90;99.90;;;;;;5097974;28;20472;-90
2022/07/21 11:46:15;;;;;;;27.70;15.95;;;10.90;99.90;;;;;;5096473;28;20786;-88
2022/07/21 11:48:42;;;;;;;25.17;13.93;;;10.80;99.90;;;;;;5097245;28;20376;-88
2022/07/21 11:51:09;;;;;;;26.67;13.75;;;10.80;99.90;;;;;;5097472;28;20380;-89
2022/07/21 11:53:43;;;;;;;24.10;12.88;;;10.80;99.90;;;;;;5096035;28;20373;-88
2022/07/21 11:56:17;;;;;;;28.08;13.43;;;10.70;99.90;;;;;;5097163;28;20928;-87
2022/07/21 11:58:44;;;;;;;23.13;12.38;;;10.60;99.90;;;;;;5098011;28;20364;-88
2022/07/21 12:01:11;;;;;;;28.27;12.37;;;10.50;99.90;;;;;;5097006;28;20425;-88
2022/07/21 12:03:51;;;;;;;23.77;12.00;;;10.40;99.90;;;;;;5095405;28;20376;-89
2022/07/21 12:06:19;;;;;;;25.63;12.80;;;10.40;99.90;;;;;;5095193;28;20824;-87
2022/07/21 12:08:46;;;;;;;22.77;12.60;;;10.40;99.90;;;;;;5095745;28;20463;-87
2022/07/21 12:11:13;;;;;;;21.30;9.15;;;10.50;99.90;;;;;;5097000;28;20415;-89
2022/07/21 12:13:58;;;;;;;18.50;5.27;;;10.60;99.90;;;;;;5096991;28;20482;-89
2022/07/21 12:16:25;;;;;;;20.90;3.63;;;10.80;99.90;;;;;;5096866;28;20891;-88
2022/07/21 12:19:15;;;;;;;15.85;3.17;;;11.00;99.90;;;;;;5095223;28;20852;-89
2022/07/21 12:21:53;;;;;;;21.20;3.37;;;11.10;99.90;;;;;;5095137;28;20377;-87
2022/07/21 12:24:21;;;;;;;16.80;3.15;;;11.10;99.90;;;;;;5095336;28;20399;-89
2022/07/21 12:26:48;;;;;;;13.52;2.90;;;11.10;99.90;;;;;;5095199;28;20425;-88
2022/07/21 12:29:29;;;;;;;15.03;2.60;;;11.10;99.90;;;;;;5096447;28;20782;-89
2022/07/21 12:31:56;;;;;;;16.50;2.30;;;11.10;99.90;;;;;;5095650;28;20414;-89
2022/07/21 12:34:24;;;;;;;11.65;2.00;;;11.10;99.90;;;;;;5096164;28;20376;-90
2022/07/21 12:36:51;;;;;;;11.07;2.17;;;11.10;99.90;;;;;;5096806;28;20380;-87
2022/07/21 12:42:38;;;;;;;10.35;1.70;;;11.00;99.90;;;;;;5033437;28;20374;-87
2022/07/21 12:45:21;;;;;;;10.98;1.80;;;11.10;99.90;;;;;;5033520;28;20443;-87
2022/07/21 12:48:07;;;;;;;14.88;2.00;;;11.20;99.90;;;;;;5033143;28;20397;-87
2022/07/21 12:50:34;;;;;;;8.95;1.77;;;11.30;99.90;;;;;;5033364;28;20381;-89
2022/07/21 12:53:05;;;;;;;9.98;1.80;;;11.40;99.90;;;;;;5016184;28;20401;-87
2022/07/21 12:55:33;;;;;;;14.43;2.00;;;11.40;99.90;;;;;;5033102;28;21043;-88
2022/07/21 12:58:00;;;;;;;13.07;2.10;;;11.30;99.90;;;;;;5032951;28;20396;-88
2022/07/21 13:00:27;;;;;;;11.23;2.13;;;11.20;99.90;;;;;;5033397;28;20964;-88
2022/07/21 13:02:56;;;;;;;10.95;1.83;;;11.10;99.90;;;;;;5033637;28;20853;-88